EET,Max TemperatureF,Mean TemperatureF,Min TemperatureF,Max Dew PointF,MeanDew PointF,Min DewpointF,Max Humidity, Mean Humidity, Min Humidity, Max Sea Level PressureIn, Mean Sea Level PressureIn, Min Sea Level PressureIn, Max VisibilityMiles, Mean VisibilityMiles, Min VisibilityMiles, Max Wind SpeedMPH, Mean Wind SpeedMPH, Max Gust SpeedMPH,PrecipitationIn, CloudCover, Events, WindDirDegrees
2012-10-1,94,84,74,70,64,57,83,56,20,30.04,30.00,29.97,6,6,6,12,4,,0.00,5,Rain,351
2012-10-2,95,82,69,64,57,50,78,46,15,30.01,29.97,29.95,6,6,6,10,3,,0.00,4,,359
2012-10-3,88,79,70,73,61,48,78,55,32,29.95,29.91,29.89,12,6,6,20,6,,0.01,3,Rain-Thunderstorm,155
2012-10-4,87,76,65,72,63,59,88,65,37,29.92,29.86,29.80,6,6,6,9,5,,0.00,3,Rain-Thunderstorm,39
2012-10-5,85,74,64,63,61,57,83,64,32,29.92,29.90,29.86,6,6,6,12,4,,0.00,4,,1
2012-10-6,72,67,62,68,63,59,100,82,61,30.01,29.96,29.91,6,6,6,10,5,,0.01,6,Rain-Thunderstorm,16
2012-10-7,85,74,62,63,59,50,94,65,24,29.95,29.90,29.86,12,6,6,9,4,,0.00,5,,264
2012-10-8,82,73,64,66,62,55,100,79,39,29.89,29.86,29.83,12,6,6,13,6,,0.08,5,Rain-Thunderstorm,16
2012-10-9,82,72,63,64,62,57,94,72,38,29.89,29.86,29.83,6,6,6,15,6,,0.24,5,Rain-Thunderstorm,29
2012-10-10,81,72,62,63,60,55,100,69,33,29.89,29.86,29.80,6,6,6,12,6,,0.12,6,Rain-Thunderstorm,16
2012-10-11,69,64,60,65,62,59,100,90,73,29.86,29.81,29.77,6,6,2,14,7,,0.59,5,Rain-Thunderstorm,10
2012-10-12,82,70,58,59,56,48,100,69,24,30.04,29.98,29.89,6,6,6,9,5,,0.00,3,,342
2012-10-13,85,72,59,57,52,44,94,59,14,30.04,30.00,29.95,6,6,6,10,5,,0.00,,,26
2012-10-14,89,74,59,61,52,45,83,52,14,29.98,29.96,29.92,6,6,6,12,7,,0.00,,,356
2012-10-15,90,76,61,59,54,47,83,54,14,30.04,30.00,29.98,12,8,6,9,4,,0.00,,,13
2012-10-16,93,78,62,59,52,43,77,50,11,30.06,30.03,30.00,12,9,6,10,4,,0.00,,,352
2012-10-17,94,77,60,57,49,36,73,45,7,30.02,29.98,29.93,6,6,6,14,6,,0.00,,,16
2012-10-18,95,77,59,55,44,34,72,36,6,29.98,29.92,29.89,6,6,6,14,4,,0.00,,,3
2012-10-19,94,80,65,55,43,30,68,32,5,29.93,29.89,29.86,12,6,6,16,5,,0.00,1,,9
2012-10-20,92,77,62,50,46,37,59,34,12,29.92,29.87,29.83,6,6,4,18,7,,0.00,3,,39
2012-10-21,85,78,71,54,49,46,50,37,20,29.95,29.93,29.91,6,6,6,22,15,,0.00,6,,48
2012-10-22,79,70,62,61,55,48,94,57,31,30.01,29.95,29.92,6,6,2,22,16,,0.39,6,Rain-Thunderstorm,44
2012-10-23,77,68,59,61,57,55,94,75,47,29.99,29.94,29.89,12,6,6,13,7,,0.01,6,Rain,342
2012-10-24,81,70,59,58,55,52,88,63,29,29.98,29.93,29.86,12,6,6,12,6,,0.00,6,,7
2012-10-25,68,64,59,61,58,54,100,85,55,29.89,29.83,29.80,6,6,3,15,5,,0.59,6,Rain-Thunderstorm,358
2012-10-26,75,66,57,61,59,55,100,82,53,29.92,29.85,29.80,6,6,6,7,4,,0.00,5,,52
2012-10-27,75,66,57,60,58,55,100,80,43,30.01,29.96,29.91,12,6,6,9,5,,0.00,2,,12
2012-10-28,77,66,56,63,59,55,100,81,41,30.09,30.05,30.01,6,6,6,8,5,,0.00,6,,360
2012-10-29,81,68,55,57,52,43,94,65,17,30.09,30.01,29.95,6,6,6,10,4,,0.00,,,13
2012-10-30,82,69,56,57,51,48,82,59,21,29.95,29.92,29.88,6,6,6,9,5,,0.00,,,27
2012-10-31,80,70,59,57,53,50,77,60,29,30.01,29.97,29.95,12,7,6,15,5,,0.00,4,,8